Spring Garden, California
Current Conditions -  °F | °C
As of 1:52 AM on Sunday 21 Dec 2014 (Local Time) from KBLU Reporting Station
Haze Haze  
Wind Chill: 38°   Ceiling: 400
Heat Index: 42°   Visibility: 0.75mi
Dew Point: 39°   Wind: 7mph
Humidity: 89%   Direction: 140°SE
Pressure: 30.29"   Gusts: NA
Location:  39.939°N, 120.918°W
Report Text: KBLU 210952Z AUTO 14006KT 3/4SM BR VV004 06/04 A3029 RMK AO2 RAE40 SLP246 P0003 T00560039
Loading
Personal Weather Stations






























Interactive Weather Map New forecast layout! Learn more

10-Day Weather Forecast

Advertisements
Track Severe Weather on mobile